sensor_id;sensor_type;location;lat;lon;timestamp;temperature;humidity
9544;DHT22;30418;51.45933468;7.33152330;2023-03-11T00:00:58;5.00;71.60
9544;DHT22;30418;51.45933468;7.33152330;2023-03-11T00:03:28;5.00;71.60
9544;DHT22;30418;51.45933468;7.33152330;2023-03-11T00:05:59;5.00;71.70
9544;DHT22;30418;51.45933468;7.33152330;2023-03-11T00:08:29;5.00;71.70
9544;DHT22;30418;51.45933468;7.33152330;2023-03-11T00:10:58;5.00;72.40
9544;DHT22;30418;51.45933468;7.33152330;2023-03-11T00:13:28;5.00;71.50
9544;DHT22;30418;51.45933468;7.33152330;2023-03-11T00:15:59;5.00;71.50
9544;DHT22;30418;51.45933468;7.33152330;2023-03-11T00:18:29;5.00;71.60
9544;DHT22;30418;51.45933468;7.33152330;2023-03-11T00:20:59;5.00;71.60
9544;DHT22;30418;51.45933468;7.33152330;2023-03-11T00:23:28;5.00;71.30
9544;DHT22;30418;51.45933468;7.33152330;2023-03-11T00:25:56;5.00;71.20
9544;DHT22;30418;51.45933468;7.33152330;2023-03-11T00:28:26;5.00;71.20
9544;DHT22;30418;51.45933468;7.33152330;2023-03-11T00:30:54;5.00;71.40
9544;DHT22;30418;51.45933468;7.33152330;2023-03-11T00:33:23;5.00;71.50
9544;DHT22;30418;51.45933468;7.33152330;2023-03-11T00:35:53;5.00;71.40
9544;DHT22;30418;51.45933468;7.33152330;2023-03-11T00:38:22;5.00;71.40
9544;DHT22;30418;51.45933468;7.33152330;2023-03-11T00:40:50;5.00;71.30
9544;DHT22;30418;51.45933468;7.33152330;2023-03-11T00:43:19;4.90;71.10
9544;DHT22;30418;51.45933468;7.33152330;2023-03-11T00:45:47;5.00;71.30
9544;DHT22;30418;51.45933468;7.33152330;2023-03-11T00:48:16;4.90;71.20
9544;DHT22;30418;51.45933468;7.33152330;2023-03-11T00:50:45;4.90;71.20
9544;DHT22;30418;51.45933468;7.33152330;2023-03-11T00:53:15;4.90;71.10
9544;DHT22;30418;51.45933468;7.33152330;2023-03-11T00:55:44;4.90;70.90
9544;DHT22;30418;51.45933468;7.33152330;2023-03-11T00:58:12;4.90;71.00
9544;DHT22;30418;51.45933468;7.33152330;2023-03-11T01:00:47;5.00;71.20
9544;DHT22;30418;51.45933468;7.33152330;2023-03-11T01:03:16;4.90;71.10
9544;DHT22;30418;51.45933468;7.33152330;2023-03-11T01:05:45;4.90;71.20
9544;DHT22;30418;51.45933468;7.33152330;2023-03-11T01:08:15;5.00;71.30
9544;DHT22;30418;51.45933468;7.33152330;2023-03-11T01:10:45;5.00;71.20
9544;DHT22;30418;51.45933468;7.33152330;2023-03-11T01:13:13;5.00;71.20
9544;DHT22;30418;51.45933468;7.33152330;2023-03-11T01:15:42;5.00;71.00
9544;DHT22;30418;51.45933468;7.33152330;2023-03-11T01:18:11;5.00;70.90
9544;DHT22;30418;51.45933468;7.33152330;2023-03-11T01:20:41;5.00;71.00
9544;DHT22;30418;51.45933468;7.33152330;2023-03-11T01:23:11;5.00;71.00
9544;DHT22;30418;51.45933468;7.33152330;2023-03-11T01:25:42;5.00;71.20
9544;DHT22;30418;51.45933468;7.33152330;2023-03-11T01:28:10;5.00;71.20
9544;DHT22;30418;51.45933468;7.33152330;2023-03-11T01:30:40;5.00;71.30
9544;DHT22;30418;51.45933468;7.33152330;2023-03-11T01:33:14;5.00;71.30
9544;DHT22;30418;51.45933468;7.33152330;2023-03-11T01:35:44;5.00;71.30
9544;DHT22;30418;51.45933468;7.33152330;2023-03-11T01:38:12;5.00;71.20
9544;DHT22;30418;51.45933468;7.33152330;2023-03-11T01:40:45;5.10;71.40
9544;DHT22;30418;51.45933468;7.33152330;2023-03-11T01:43:37;5.10;71.40
9544;DHT22;30418;51.45933468;7.33152330;2023-03-11T01:46:13;5.10;71.30
9544;DHT22;30418;51.45933468;7.33152330;2023-03-11T01:48:46;5.10;71.30
9544;DHT22;30418;51.45933468;7.33152330;2023-03-11T01:51:17;5.10;71.30
9544;DHT22;30418;51.45933468;7.33152330;2023-03-11T01:53:48;5.10;71.20
9544;DHT22;30418;51.45933468;7.33152330;2023-03-11T01:56:19;5.10;71.00
9544;DHT22;30418;51.45933468;7.33152330;2023-03-11T01:58:49;5.10;70.80
9544;DHT22;30418;51.45933468;7.33152330;2023-03-11T02:01:19;5.10;70.70
9544;DHT22;30418;51.45933468;7.33152330;2023-03-11T02:03:48;5.10;70.80
9544;DHT22;30418;51.45933468;7.33152330;2023-03-11T02:06:20;5.10;70.70
9544;DHT22;30418;51.45933468;7.33152330;2023-03-11T02:08:52;5.10;70.80
9544;DHT22;30418;51.45933468;7.33152330;2023-03-11T02:11:25;5.10;70.80
9544;DHT22;30418;51.45933468;7.33152330;2023-03-11T02:13:57;5.10;70.70
9544;DHT22;30418;51.45933468;7.33152330;2023-03-11T02:16:28;5.10;71.00
9544;DHT22;30418;51.45933468;7.33152330;2023-03-11T02:18:58;5.10;71.10
9544;DHT22;30418;51.45933468;7.33152330;2023-03-11T02:21:29;5.10;71.10
9544;DHT22;30418;51.45933468;7.33152330;2023-03-11T02:24:07;5.10;71.90
9544;DHT22;30418;51.45933468;7.33152330;2023-03-11T02:26:49;5.10;70.90
9544;DHT22;30418;51.45933468;7.33152330;2023-03-11T02:29:20;5.10;70.70
9544;DHT22;30418;51.45933468;7.33152330;2023-03-11T02:31:49;5.10;70.80
9544;DHT22;30418;51.45933468;7.33152330;2023-03-11T02:34:23;5.10;70.80
9544;DHT22;30418;51.45933468;7.33152330;2023-03-11T02:36:53;5.10;70.70
9544;DHT22;30418;51.45933468;7.33152330;2023-03-11T02:39:29;5.10;70.60
9544;DHT22;30418;51.45933468;7.33152330;2023-03-11T02:42:03;5.10;70.60
9544;DHT22;30418;51.45933468;7.33152330;2023-03-11T02:44:33;5.10;70.60
9544;DHT22;30418;51.45933468;7.33152330;2023-03-11T02:47:02;5.10;70.40
9544;DHT22;30418;51.45933468;7.33152330;2023-03-11T02:49:32;5.10;70.40
9544;DHT22;30418;51.45933468;7.33152330;2023-03-11T02:52:01;5.10;70.40
9544;DHT22;30418;51.45933468;7.33152330;2023-03-11T02:54:30;5.10;70.40
9544;DHT22;30418;51.45933468;7.33152330;2023-03-11T02:56:58;5.10;70.40
9544;DHT22;30418;51.45933468;7.33152330;2023-03-11T02:59:28;5.10;70.40
9544;DHT22;30418;51.45933468;7.33152330;2023-03-11T03:01:59;5.10;70.40
9544;DHT22;30418;51.45933468;7.33152330;2023-03-11T03:04:28;5.10;70.40
9544;DHT22;30418;51.45933468;7.33152330;2023-03-11T03:06:58;5.10;70.40
9544;DHT22;30418;51.45933468;7.33152330;2023-03-11T03:09:26;5.10;70.40
9544;DHT22;30418;51.45933468;7.33152330;2023-03-11T03:11:55;5.00;70.40
9544;DHT22;30418;51.45933468;7.33152330;2023-03-11T03:14:25;5.00;70.40
9544;DHT22;30418;51.45933468;7.33152330;2023-03-11T03:16:54;5.10;70.60
9544;DHT22;30418;51.45933468;7.33152330;2023-03-11T03:19:23;5.10;70.60
9544;DHT22;30418;51.45933468;7.33152330;2023-03-11T03:21:53;5.10;70.70
9544;DHT22;30418;51.45933468;7.33152330;2023-03-11T03:24:22;5.10;70.70
9544;DHT22;30418;51.45933468;7.33152330;2023-03-11T03:26:51;5.10;70.70
9544;DHT22;30418;51.45933468;7.33152330;2023-03-11T03:29:20;5.10;70.60
9544;DHT22;30418;51.45933468;7.33152330;2023-03-11T03:31:50;5.10;70.50
9544;DHT22;30418;51.45933468;7.33152330;2023-03-11T03:34:19;5.10;70.50
9544;DHT22;30418;51.45933468;7.33152330;2023-03-11T03:36:48;5.10;70.40
9544;DHT22;30418;51.45933468;7.33152330;2023-03-11T03:39:17;5.10;70.40
9544;DHT22;30418;51.45933468;7.33152330;2023-03-11T03:41:51;5.10;70.40
9544;DHT22;30418;51.45933468;7.33152330;2023-03-11T03:44:22;5.10;70.40
9544;DHT22;30418;51.45933468;7.33152330;2023-03-11T03:46:52;5.10;70.40
9544;DHT22;30418;51.45933468;7.33152330;2023-03-11T03:49:21;5.10;70.40
9544;DHT22;30418;51.45933468;7.33152330;2023-03-11T03:51:50;5.10;70.40
9544;DHT22;30418;51.45933468;7.33152330;2023-03-11T03:54:25;5.10;70.40
9544;DHT22;30418;51.45933468;7.33152330;2023-03-11T03:56:54;5.10;70.40
9544;DHT22;30418;51.45933468;7.33152330;2023-03-11T03:59:23;5.10;70.40
9544;DHT22;30418;51.45933468;7.33152330;2023-03-11T04:01:56;5.10;70.40
9544;DHT22;30418;51.45933468;7.33152330;2023-03-11T04:04:28;5.10;70.40
9544;DHT22;30418;51.45933468;7.33152330;2023-03-11T04:06:57;5.10;70.40
9544;DHT22;30418;51.45933468;7.33152330;2023-03-11T04:09:25;5.10;70.40
9544;DHT22;30418;51.45933468;7.33152330;2023-03-11T04:11:54;5.10;70.40
9544;DHT22;30418;51.45933468;7.33152330;2023-03-11T04:14:23;5.10;70.40
9544;DHT22;30418;51.45933468;7.33152330;2023-03-11T04:16:57;5.00;70.30
9544;DHT22;30418;51.45933468;7.33152330;2023-03-11T04:19:27;5.10;70.40
9544;DHT22;30418;51.45933468;7.33152330;2023-03-11T04:21:55;5.10;70.40
9544;DHT22;30418;51.45933468;7.33152330;2023-03-11T04:24:26;5.10;70.40
9544;DHT22;30418;51.45933468;7.33152330;2023-03-11T04:26:54;5.10;70.40
9544;DHT22;30418;51.45933468;7.33152330;2023-03-11T04:29:23;5.10;70.40
9544;DHT22;30418;51.45933468;7.33152330;2023-03-11T04:31:53;5.10;70.40
9544;DHT22;30418;51.45933468;7.33152330;2023-03-11T04:34:23;5.10;70.40
9544;DHT22;30418;51.45933468;7.33152330;2023-03-11T04:36:52;5.10;70.40
9544;DHT22;30418;51.45933468;7.33152330;2023-03-11T04:39:26;5.20;70.50
9544;DHT22;30418;51.45933468;7.33152330;2023-03-11T04:41:55;5.10;70.40
9544;DHT22;30418;51.45933468;7.33152330;2023-03-11T04:44:26;5.20;70.40
9544;DHT22;30418;51.45933468;7.33152330;2023-03-11T04:46:55;5.20;70.40
9544;DHT22;30418;51.45933468;7.33152330;2023-03-11T04:49:26;5.10;70.40
9544;DHT22;30418;51.45933468;7.33152330;2023-03-11T04:51:55;5.10;70.30
9544;DHT22;30418;51.45933468;7.33152330;2023-03-11T04:54:25;5.20;70.30
9544;DHT22;30418;51.45933468;7.33152330;2023-03-11T04:56:53;5.20;70.30
9544;DHT22;30418;51.45933468;7.33152330;2023-03-11T04:59:22;5.20;70.30
9544;DHT22;30418;51.45933468;7.33152330;2023-03-11T05:01:52;5.20;70.30
9544;DHT22;30418;51.45933468;7.33152330;2023-03-11T05:04:20;5.20;70.20
9544;DHT22;30418;51.45933468;7.33152330;2023-03-11T05:06:50;5.20;70.20
9544;DHT22;30418;51.45933468;7.33152330;2023-03-11T05:09:22;5.20;70.20
9544;DHT22;30418;51.45933468;7.33152330;2023-03-11T05:11:51;5.10;70.00
9544;DHT22;30418;51.45933468;7.33152330;2023-03-11T05:14:21;5.20;70.20
9544;DHT22;30418;51.45933468;7.33152330;2023-03-11T05:16:51;5.10;69.90
9544;DHT22;30418;51.45933468;7.33152330;2023-03-11T05:19:20;5.10;69.80
9544;DHT22;30418;51.45933468;7.33152330;2023-03-11T05:22:08;5.10;69.70
9544;DHT22;30418;51.45933468;7.33152330;2023-03-11T05:24:37;5.10;69.80
9544;DHT22;30418;51.45933468;7.33152330;2023-03-11T05:27:05;5.10;69.80
9544;DHT22;30418;51.45933468;7.33152330;2023-03-11T05:29:36;5.10;69.80
9544;DHT22;30418;51.45933468;7.33152330;2023-03-11T05:32:07;5.10;69.70
9544;DHT22;30418;51.45933468;7.33152330;2023-03-11T05:34:36;5.10;69.50
9544;DHT22;30418;51.45933468;7.33152330;2023-03-11T05:37:07;5.00;69.50
9544;DHT22;30418;51.45933468;7.33152330;2023-03-11T05:39:36;5.00;69.60
9544;DHT22;30418;51.45933468;7.33152330;2023-03-11T05:42:05;5.10;69.80
9544;DHT22;30418;51.45933468;7.33152330;2023-03-11T05:44:34;5.00;69.50
9544;DHT22;30418;51.45933468;7.33152330;2023-03-11T05:47:03;5.00;69.30
9544;DHT22;30418;51.45933468;7.33152330;2023-03-11T05:49:32;5.00;69.30
9544;DHT22;30418;51.45933468;7.33152330;2023-03-11T05:52:01;5.00;69.30
9544;DHT22;30418;51.45933468;7.33152330;2023-03-11T05:54:32;4.90;69.10
9544;DHT22;30418;51.45933468;7.33152330;2023-03-11T05:57:00;4.90;69.20
9544;DHT22;30418;51.45933468;7.33152330;2023-03-11T05:59:30;4.90;69.20
9544;DHT22;30418;51.45933468;7.33152330;2023-03-11T06:02:03;4.90;69.40
9544;DHT22;30418;51.45933468;7.33152330;2023-03-11T06:04:32;4.90;69.40
9544;DHT22;30418;51.45933468;7.33152330;2023-03-11T06:07:02;4.90;69.50
9544;DHT22;30418;51.45933468;7.33152330;2023-03-11T06:09:36;4.90;69.50
9544;DHT22;30418;51.45933468;7.33152330;2023-03-11T06:12:09;5.00;69.70
9544;DHT22;30418;51.45933468;7.33152330;2023-03-11T06:15:13;4.90;69.50
9544;DHT22;30418;51.45933468;7.33152330;2023-03-11T06:17:42;4.90;69.60
9544;DHT22;30418;51.45933468;7.33152330;2023-03-11T06:20:11;4.90;69.60
9544;DHT22;30418;51.45933468;7.33152330;2023-03-11T06:22:41;4.90;69.70
9544;DHT22;30418;51.45933468;7.33152330;2023-03-11T06:25:11;5.00;69.90
9544;DHT22;30418;51.45933468;7.33152330;2023-03-11T06:27:42;5.00;70.00
9544;DHT22;30418;51.45933468;7.33152330;2023-03-11T06:30:12;5.00;70.20
9544;DHT22;30418;51.45933468;7.33152330;2023-03-11T06:32:50;5.00;70.20
9544;DHT22;30418;51.45933468;7.33152330;2023-03-11T06:35:19;5.10;70.30
9544;DHT22;30418;51.45933468;7.33152330;2023-03-11T06:37:48;5.10;70.40
9544;DHT22;30418;51.45933468;7.33152330;2023-03-11T06:40:18;5.10;70.30
9544;DHT22;30418;51.45933468;7.33152330;2023-03-11T06:42:47;5.20;70.30
9544;DHT22;30418;51.45933468;7.33152330;2023-03-11T06:45:17;5.20;70.30
9544;DHT22;30418;51.45933468;7.33152330;2023-03-11T06:47:47;5.20;70.20
9544;DHT22;30418;51.45933468;7.33152330;2023-03-11T06:50:16;5.20;70.10
9544;DHT22;30418;51.45933468;7.33152330;2023-03-11T06:52:45;5.30;70.10
9544;DHT22;30418;51.45933468;7.33152330;2023-03-11T06:55:14;5.30;70.10
9544;DHT22;30418;51.45933468;7.33152330;2023-03-11T06:57:44;5.30;70.00
9544;DHT22;30418;51.45933468;7.33152330;2023-03-11T07:00:13;5.30;70.00
9544;DHT22;30418;51.45933468;7.33152330;2023-03-11T07:02:48;5.30;69.90
9544;DHT22;30418;51.45933468;7.33152330;2023-03-11T07:05:17;5.30;70.60
9544;DHT22;30418;51.45933468;7.33152330;2023-03-11T07:07:47;5.40;69.90
9544;DHT22;30418;51.45933468;7.33152330;2023-03-11T07:10:15;5.30;69.80
9544;DHT22;30418;51.45933468;7.33152330;2023-03-11T07:12:46;5.40;69.80
9544;DHT22;30418;51.45933468;7.33152330;2023-03-11T07:15:15;5.40;69.70
9544;DHT22;30418;51.45933468;7.33152330;2023-03-11T07:17:44;5.40;69.70
9544;DHT22;30418;51.45933468;7.33152330;2023-03-11T07:20:13;5.40;69.70
9544;DHT22;30418;51.45933468;7.33152330;2023-03-11T07:22:42;5.40;69.70
9544;DHT22;30418;51.45933468;7.33152330;2023-03-11T07:25:10;5.40;69.60
9544;DHT22;30418;51.45933468;7.33152330;2023-03-11T07:27:40;5.40;69.60
9544;DHT22;30418;51.45933468;7.33152330;2023-03-11T07:30:11;5.40;69.60
9544;DHT22;30418;51.45933468;7.33152330;2023-03-11T07:32:41;5.40;69.60
9544;DHT22;30418;51.45933468;7.33152330;2023-03-11T07:35:09;5.40;69.60
9544;DHT22;30418;51.45933468;7.33152330;2023-03-11T07:37:38;5.40;69.60
9544;DHT22;30418;51.45933468;7.33152330;2023-03-11T07:40:07;5.40;69.60
9544;DHT22;30418;51.45933468;7.33152330;2023-03-11T07:42:36;5.40;70.50
9544;DHT22;30418;51.45933468;7.33152330;2023-03-11T07:45:07;5.40;69.70
9544;DHT22;30418;51.45933468;7.33152330;2023-03-11T07:47:38;5.50;69.80
9544;DHT22;30418;51.45933468;7.33152330;2023-03-11T07:50:08;5.50;69.80
9544;DHT22;30418;51.45933468;7.33152330;2023-03-11T07:52:37;5.50;69.80
9544;DHT22;30418;51.45933468;7.33152330;2023-03-11T07:55:06;5.50;69.70
9544;DHT22;30418;51.45933468;7.33152330;2023-03-11T07:57:35;5.50;69.70
9544;DHT22;30418;51.45933468;7.33152330;2023-03-11T08:00:04;5.50;69.60
9544;DHT22;30418;51.45933468;7.33152330;2023-03-11T08:02:39;5.50;69.60
9544;DHT22;30418;51.45933468;7.33152330;2023-03-11T08:05:08;5.50;69.60
9544;DHT22;30418;51.45933468;7.33152330;2023-03-11T08:07:37;5.60;69.80
9544;DHT22;30418;51.45933468;7.33152330;2023-03-11T08:10:06;5.60;69.80
9544;DHT22;30418;51.45933468;7.33152330;2023-03-11T08:12:35;5.60;69.80
9544;DHT22;30418;51.45933468;7.33152330;2023-03-11T08:15:04;5.60;69.80
9544;DHT22;30418;51.45933468;7.33152330;2023-03-11T08:17:33;5.60;69.40
9544;DHT22;30418;51.45933468;7.33152330;2023-03-11T08:20:04;5.60;69.20
9544;DHT22;30418;51.45933468;7.33152330;2023-03-11T08:22:34;5.70;69.00
9544;DHT22;30418;51.45933468;7.33152330;2023-03-11T08:25:15;5.70;68.60
9544;DHT22;30418;51.45933468;7.33152330;2023-03-11T08:27:43;5.70;68.60
9544;DHT22;30418;51.45933468;7.33152330;2023-03-11T08:30:13;5.70;68.70
9544;DHT22;30418;51.45933468;7.33152330;2023-03-11T08:32:41;5.70;68.90
9544;DHT22;30418;51.45933468;7.33152330;2023-03-11T08:35:11;5.70;68.90
9544;DHT22;30418;51.45933468;7.33152330;2023-03-11T08:37:40;5.70;68.90
9544;DHT22;30418;51.45933468;7.33152330;2023-03-11T08:40:10;5.70;68.70
9544;DHT22;30418;51.45933468;7.33152330;2023-03-11T08:42:39;5.70;68.70
9544;DHT22;30418;51.45933468;7.33152330;2023-03-11T08:45:09;5.80;68.70
9544;DHT22;30418;51.45933468;7.33152330;2023-03-11T08:47:39;5.80;68.40
9544;DHT22;30418;51.45933468;7.33152330;2023-03-11T08:50:13;5.80;68.20
9544;DHT22;30418;51.45933468;7.33152330;2023-03-11T08:52:43;5.80;68.10
9544;DHT22;30418;51.45933468;7.33152330;2023-03-11T08:55:14;5.80;68.30
9544;DHT22;30418;51.45933468;7.33152330;2023-03-11T08:57:44;5.90;68.40
9544;DHT22;30418;51.45933468;7.33152330;2023-03-11T09:00:13;5.90;68.20
9544;DHT22;30418;51.45933468;7.33152330;2023-03-11T09:02:42;5.90;68.90
9544;DHT22;30418;51.45933468;7.33152330;2023-03-11T09:05:12;5.90;67.80
9544;DHT22;30418;51.45933468;7.33152330;2023-03-11T09:07:41;6.00;68.20
9544;DHT22;30418;51.45933468;7.33152330;2023-03-11T09:10:11;6.00;67.90
9544;DHT22;30418;51.45933468;7.33152330;2023-03-11T09:12:41;6.10;68.10
9544;DHT22;30418;51.45933468;7.33152330;2023-03-11T09:15:10;6.10;67.90
9544;DHT22;30418;51.45933468;7.33152330;2023-03-11T09:17:39;6.10;67.70
9544;DHT22;30418;51.45933468;7.33152330;2023-03-11T09:20:10;6.10;67.70
9544;DHT22;30418;51.45933468;7.33152330;2023-03-11T09:22:41;6.20;67.50
9544;DHT22;30418;51.45933468;7.33152330;2023-03-11T09:25:11;6.20;67.40
9544;DHT22;30418;51.45933468;7.33152330;2023-03-11T09:27:40;6.30;67.10
9544;DHT22;30418;51.45933468;7.33152330;2023-03-11T09:30:10;6.30;66.70
9544;DHT22;30418;51.45933468;7.33152330;2023-03-11T09:32:39;6.30;66.70
9544;DHT22;30418;51.45933468;7.33152330;2023-03-11T09:35:08;6.40;66.40
9544;DHT22;30418;51.45933468;7.33152330;2023-03-11T09:37:37;6.40;66.20
9544;DHT22;30418;51.45933468;7.33152330;2023-03-11T09:40:09;6.40;66.10
9544;DHT22;30418;51.45933468;7.33152330;2023-03-11T09:42:44;6.40;66.10
9544;DHT22;30418;51.45933468;7.33152330;2023-03-11T09:45:21;6.40;65.70
9544;DHT22;30418;51.45933468;7.33152330;2023-03-11T09:48:02;6.50;65.90
9544;DHT22;30418;51.45933468;7.33152330;2023-03-11T09:50:41;6.50;65.90
9544;DHT22;30418;51.45933468;7.33152330;2023-03-11T09:53:21;6.50;66.00
9544;DHT22;30418;51.45933468;7.33152330;2023-03-11T09:55:59;6.50;65.00
9544;DHT22;30418;51.45933468;7.33152330;2023-03-11T09:58:35;6.50;65.20
9544;DHT22;30418;51.45933468;7.33152330;2023-03-11T10:01:16;6.50;64.80
9544;DHT22;30418;51.45933468;7.33152330;2023-03-11T10:03:49;6.50;64.50
9544;DHT22;30418;51.45933468;7.33152330;2023-03-11T10:06:21;6.50;64.70
9544;DHT22;30418;51.45933468;7.33152330;2023-03-11T10:08:56;6.50;64.80
9544;DHT22;30418;51.45933468;7.33152330;2023-03-11T10:11:50;6.50;64.90
9544;DHT22;30418;51.45933468;7.33152330;2023-03-11T10:14:51;6.50;64.70
9544;DHT22;30418;51.45933468;7.33152330;2023-03-11T10:17:39;6.60;64.80
9544;DHT22;30418;51.45933468;7.33152330;2023-03-11T10:20:19;6.60;64.40
9544;DHT22;30418;51.45933468;7.33152330;2023-03-11T10:22:57;6.70;64.40
9544;DHT22;30418;51.45933468;7.33152330;2023-03-11T10:25:40;6.80;63.90
9544;DHT22;30418;51.45933468;7.33152330;2023-03-11T10:28:16;6.80;63.90
9544;DHT22;30418;51.45933468;7.33152330;2023-03-11T10:30:47;6.80;63.50
9544;DHT22;30418;51.45933468;7.33152330;2023-03-11T10:33:23;6.80;62.90
9544;DHT22;30418;51.45933468;7.33152330;2023-03-11T10:35:55;6.80;62.40
9544;DHT22;30418;51.45933468;7.33152330;2023-03-11T10:38:30;6.80;62.90
9544;DHT22;30418;51.45933468;7.33152330;2023-03-11T10:41:04;6.80;63.30
9544;DHT22;30418;51.45933468;7.33152330;2023-03-11T10:43:38;6.90;63.50
9544;DHT22;30418;51.45933468;7.33152330;2023-03-11T10:46:13;6.90;63.10
9544;DHT22;30418;51.45933468;7.33152330;2023-03-11T10:48:46;7.00;63.20
9544;DHT22;30418;51.45933468;7.33152330;2023-03-11T10:51:16;7.00;63.10
9544;DHT22;30418;51.45933468;7.33152330;2023-03-11T10:53:50;7.00;62.60
9544;DHT22;30418;51.45933468;7.33152330;2023-03-11T10:56:26;7.10;62.20
9544;DHT22;30418;51.45933468;7.33152330;2023-03-11T10:58:58;7.00;61.20
9544;DHT22;30418;51.45933468;7.33152330;2023-03-11T11:01:28;7.00;61.40
9544;DHT22;30418;51.45933468;7.33152330;2023-03-11T11:03:59;7.00;61.70
9544;DHT22;30418;51.45933468;7.33152330;2023-03-11T11:06:30;7.00;61.40
9544;DHT22;30418;51.45933468;7.33152330;2023-03-11T11:09:13;7.00;61.70
9544;DHT22;30418;51.45933468;7.33152330;2023-03-11T11:11:45;7.00;61.80
9544;DHT22;30418;51.45933468;7.33152330;2023-03-11T11:14:46;7.00;61.90
9544;DHT22;30418;51.45933468;7.33152330;2023-03-11T11:17:22;7.00;61.50
9544;DHT22;30418;51.45933468;7.33152330;2023-03-11T11:19:54;7.00;61.70
9544;DHT22;30418;51.45933468;7.33152330;2023-03-11T11:22:24;7.10;62.10
9544;DHT22;30418;51.45933468;7.33152330;2023-03-11T11:24:54;7.10;62.00
9544;DHT22;30418;51.45933468;7.33152330;2023-03-11T11:27:25;7.10;62.20
9544;DHT22;30418;51.45933468;7.33152330;2023-03-11T11:30:14;7.20;62.30
9544;DHT22;30418;51.45933468;7.33152330;2023-03-11T11:32:44;7.20;61.60
9544;DHT22;30418;51.45933468;7.33152330;2023-03-11T11:35:14;7.30;62.40
9544;DHT22;30418;51.45933468;7.33152330;2023-03-11T11:37:47;7.30;62.30
9544;DHT22;30418;51.45933468;7.33152330;2023-03-11T11:40:23;7.40;62.30
9544;DHT22;30418;51.45933468;7.33152330;2023-03-11T11:42:55;7.40;61.50
9544;DHT22;30418;51.45933468;7.33152330;2023-03-11T11:45:32;7.40;61.50
9544;DHT22;30418;51.45933468;7.33152330;2023-03-11T11:48:10;7.40;61.50
9544;DHT22;30418;51.45933468;7.33152330;2023-03-11T11:50:43;7.50;61.50
9544;DHT22;30418;51.45933468;7.33152330;2023-03-11T11:53:26;7.50;61.80
9544;DHT22;30418;51.45933468;7.33152330;2023-03-11T11:55:56;7.50;61.50
9544;DHT22;30418;51.45933468;7.33152330;2023-03-11T11:58:24;7.50;61.50
9544;DHT22;30418;51.45933468;7.33152330;2023-03-11T12:01:05;7.50;61.30
9544;DHT22;30418;51.45933468;7.33152330;2023-03-11T12:03:57;7.60;61.10
9544;DHT22;30418;51.45933468;7.33152330;2023-03-11T12:06:48;7.60;61.00
9544;DHT22;30418;51.45933468;7.33152330;2023-03-11T12:09:26;7.60;61.60
9544;DHT22;30418;51.45933468;7.33152330;2023-03-11T12:12:07;7.70;61.40
9544;DHT22;30418;51.45933468;7.33152330;2023-03-11T12:14:46;7.70;60.70
9544;DHT22;30418;51.45933468;7.33152330;2023-03-11T12:17:22;7.70;60.60
9544;DHT22;30418;51.45933468;7.33152330;2023-03-11T12:19:55;7.70;60.60
9544;DHT22;30418;51.45933468;7.33152330;2023-03-11T12:23:03;7.70;61.10
9544;DHT22;30418;51.45933468;7.33152330;2023-03-11T12:25:48;7.80;60.70
9544;DHT22;30418;51.45933468;7.33152330;2023-03-11T12:28:33;7.80;60.90
9544;DHT22;30418;51.45933468;7.33152330;2023-03-11T12:31:07;8.00;61.70
9544;DHT22;30418;51.45933468;7.33152330;2023-03-11T12:33:40;8.00;61.90
9544;DHT22;30418;51.45933468;7.33152330;2023-03-11T12:36:21;8.10;61.00
9544;DHT22;30418;51.45933468;7.33152330;2023-03-11T12:38:52;8.20;60.20
9544;DHT22;30418;51.45933468;7.33152330;2023-03-11T12:41:33;8.20;60.40
9544;DHT22;30418;51.45933468;7.33152330;2023-03-11T12:44:22;8.30;60.20
9544;DHT22;30418;51.45933468;7.33152330;2023-03-11T12:47:17;8.30;59.60
9544;DHT22;30418;51.45933468;7.33152330;2023-03-11T12:49:52;8.30;59.50
9544;DHT22;30418;51.45933468;7.33152330;2023-03-11T12:52:24;8.30;59.90
9544;DHT22;30418;51.45933468;7.33152330;2023-03-11T12:55:23;8.30;60.00
9544;DHT22;30418;51.45933468;7.33152330;2023-03-11T12:58:13;8.30;60.00
9544;DHT22;30418;51.45933468;7.33152330;2023-03-11T13:10:19;8.40;60.40
9544;DHT22;30418;51.45933468;7.33152330;2023-03-11T13:13:02;8.40;59.90
9544;DHT22;30418;51.45933468;7.33152330;2023-03-11T13:16:34;8.40;60.10
9544;DHT22;30418;51.45933468;7.33152330;2023-03-11T13:19:34;8.50;59.20
9544;DHT22;30418;51.45933468;7.33152330;2023-03-11T13:25:42;8.60;59.60
9544;DHT22;30418;51.45933468;7.33152330;2023-03-11T13:28:39;8.60;60.40
9544;DHT22;30418;51.45933468;7.33152330;2023-03-11T13:31:22;8.70;60.40
9544;DHT22;30418;51.45933468;7.33152330;2023-03-11T13:34:09;8.80;60.50
9544;DHT22;30418;51.45933468;7.33152330;2023-03-11T13:36:58;8.90;60.80
9544;DHT22;30418;51.45933468;7.33152330;2023-03-11T13:39:45;9.00;60.30
9544;DHT22;30418;51.45933468;7.33152330;2023-03-11T13:42:27;9.10;60.80
9544;DHT22;30418;51.45933468;7.33152330;2023-03-11T13:44:58;9.20;60.00
9544;DHT22;30418;51.45933468;7.33152330;2023-03-11T13:47:28;9.30;60.00
9544;DHT22;30418;51.45933468;7.33152330;2023-03-11T13:50:02;9.40;59.90
9544;DHT22;30418;51.45933468;7.33152330;2023-03-11T13:52:35;9.50;59.80
9544;DHT22;30418;51.45933468;7.33152330;2023-03-11T13:55:16;9.50;59.60
9544;DHT22;30418;51.45933468;7.33152330;2023-03-11T13:57:50;9.60;59.60
9544;DHT22;30418;51.45933468;7.33152330;2023-03-11T14:00:22;9.70;59.60
9544;DHT22;30418;51.45933468;7.33152330;2023-03-11T14:02:53;9.70;59.40
9544;DHT22;30418;51.45933468;7.33152330;2023-03-11T14:05:24;9.80;59.20
9544;DHT22;30418;51.45933468;7.33152330;2023-03-11T14:08:10;9.80;58.90
9544;DHT22;30418;51.45933468;7.33152330;2023-03-11T14:10:48;9.90;57.80
9544;DHT22;30418;51.45933468;7.33152330;2023-03-11T14:13:19;9.90;58.70
9544;DHT22;30418;51.45933468;7.33152330;2023-03-11T14:15:53;9.90;58.80
9544;DHT22;30418;51.45933468;7.33152330;2023-03-11T14:18:35;10.00;57.60
9544;DHT22;30418;51.45933468;7.33152330;2023-03-11T14:21:09;10.00;56.70
9544;DHT22;30418;51.45933468;7.33152330;2023-03-11T14:23:42;10.00;56.90
9544;DHT22;30418;51.45933468;7.33152330;2023-03-11T14:26:13;10.00;57.00
9544;DHT22;30418;51.45933468;7.33152330;2023-03-11T14:28:45;10.00;57.20